San Francisco, CA (94116)

6:56 PM PST on February 07, 2016 (GMT -0800)
West Portal | | Change Station
CLOSE
Current Station
Personal Weather Station
Location: San Francisco, CA
Elevation: 371 ft
Nearby Weather Stations

Elev 371 ft 37.74 °N, 122.47 °W | Updated 0 second ago

Clear
Clear
62.8 °F
Feels Like 62.8 °F
N
0.0
Wind Variable Wind from ENE
Gusts 1.0 mph

Today
High -- | Low -- °F
--% Chance of Precip.
Yesterday
High -- | Low -- °F
Precip. -- in
Pressure 30.19 in
Visibility 10.0 miles
Clouds Few 20000 ft
Dew Point 51 °F
Humidity 65%
Rainfall 0.00 in
Snow Depth Not available.
7:08 AM 5:39 PM
Waning Crescent, 0% visible
METAR KSFO 080156Z 00000KT 10SM FEW200 17/08 A3019 RMK AO2 SLP222 T01720078
Pressure 30.19 in
Visibility 10.0 miles
Clouds Few 20000 ft
Dew Point 51 °F
Humidity 65%
Rainfall 0.00 in
Snow Depth Not available.
7:08 AM 5:39 PM
Waning Crescent, 0% visible
METAR KSFO 080156Z 00000KT 10SM FEW200 17/08 A3019 RMK AO2 SLP222 T01720078

10-Day Weather Forecast

Almanac

Astronomy

Feb. 07, 2016 Rise Set
Actual Time
Civil Twilight
Nautical Twilight
Astronomical Twilight
Moon
Length of Visible Light
Length of Day
Tomorrow will be .
, % of the Moon is Illuminated

Today's Extremes

State Highs State Lows

Community

WunderPhotos

Upload Photos

1,891,373 photos uploaded!

WunderBlog® & News

Nearby

Air Quality

  Air Quality AQ Index Pollutant
Not available.

Snow Depth

Station Depth Elevation

Earthquake Activity

City Distance Mag. Time & Date
Minimum magnitude displayed is 2.5.

Coastal Water Temperatures

Place Temperature

Stations

Nearby Weather Stations

Station Location Temp. Windchill Dew Point Humidity Wind Precip. Elev Updated Type
                   

Watches & Warnings

There are currently no watches in effect.